sensor_id;sensor_type;location;lat;lon;timestamp;temperature;humidity
43561;DHT22;32305;46.410;17.394;2022-09-27T00:01:56;22.90;52.90
43561;DHT22;32305;46.410;17.394;2022-09-27T00:04:23;22.90;52.90
43561;DHT22;32305;46.410;17.394;2022-09-27T00:06:52;22.90;52.90
43561;DHT22;32305;46.410;17.394;2022-09-27T00:09:19;22.80;52.80
43561;DHT22;32305;46.410;17.394;2022-09-27T00:11:46;22.80;52.90
43561;DHT22;32305;46.410;17.394;2022-09-27T00:14:16;22.80;52.90
43561;DHT22;32305;46.410;17.394;2022-09-27T00:16:44;22.80;52.90
43561;DHT22;32305;46.410;17.394;2022-09-27T00:19:17;22.80;52.90
43561;DHT22;32305;46.410;17.394;2022-09-27T00:21:46;22.80;52.90
43561;DHT22;32305;46.410;17.394;2022-09-27T00:24:18;22.90;53.00
43561;DHT22;32305;46.410;17.394;2022-09-27T00:26:49;22.80;53.00
43561;DHT22;32305;46.410;17.394;2022-09-27T00:29:17;22.80;52.90
43561;DHT22;32305;46.410;17.394;2022-09-27T00:31:45;22.80;52.90
43561;DHT22;32305;46.410;17.394;2022-09-27T00:34:21;22.80;52.90
43561;DHT22;32305;46.410;17.394;2022-09-27T00:36:49;22.80;52.90
43561;DHT22;32305;46.410;17.394;2022-09-27T00:39:17;22.80;52.80
43561;DHT22;32305;46.410;17.394;2022-09-27T00:41:44;22.80;52.80
43561;DHT22;32305;46.410;17.394;2022-09-27T00:47:42;22.80;52.70
43561;DHT22;32305;46.410;17.394;2022-09-27T00:50:29;22.80;52.70
43561;DHT22;32305;46.410;17.394;2022-09-27T00:53:11;22.90;52.80
43561;DHT22;32305;46.410;17.394;2022-09-27T00:55:51;22.90;52.70
43561;DHT22;32305;46.410;17.394;2022-09-27T00:58:23;22.80;52.70
43561;DHT22;32305;46.410;17.394;2022-09-27T01:00:56;22.90;52.70
43561;DHT22;32305;46.410;17.394;2022-09-27T01:03:52;22.80;52.60
43561;DHT22;32305;46.410;17.394;2022-09-27T01:06:21;22.90;52.70
43561;DHT22;32305;46.410;17.394;2022-09-27T01:08:49;22.90;52.70
43561;DHT22;32305;46.410;17.394;2022-09-27T01:11:41;22.90;52.70
43561;DHT22;32305;46.410;17.394;2022-09-27T01:14:46;22.80;52.60
43561;DHT22;32305;46.410;17.394;2022-09-27T01:17:34;22.80;52.60
43561;DHT22;32305;46.410;17.394;2022-09-27T01:23:38;22.80;52.60
43561;DHT22;32305;46.410;17.394;2022-09-27T01:32:25;22.80;52.60
43561;DHT22;32305;46.410;17.394;2022-09-27T01:35:04;22.80;52.60
43561;DHT22;32305;46.410;17.394;2022-09-27T01:37:56;22.80;52.60
43561;DHT22;32305;46.410;17.394;2022-09-27T01:40:44;22.80;52.60
43561;DHT22;32305;46.410;17.394;2022-09-27T01:46:11;22.80;52.60
43561;DHT22;32305;46.410;17.394;2022-09-27T01:48:44;22.80;52.60
43561;DHT22;32305;46.410;17.394;2022-09-27T01:51:22;22.80;52.60
43561;DHT22;32305;46.410;17.394;2022-09-27T01:53:52;22.80;52.60
43561;DHT22;32305;46.410;17.394;2022-09-27T01:56:29;22.80;52.60
43561;DHT22;32305;46.410;17.394;2022-09-27T01:59:10;22.80;52.60
43561;DHT22;32305;46.410;17.394;2022-09-27T02:01:39;22.70;52.60
43561;DHT22;32305;46.410;17.394;2022-09-27T02:04:10;22.80;52.60
43561;DHT22;32305;46.410;17.394;2022-09-27T02:06:42;22.80;52.60
43561;DHT22;32305;46.410;17.394;2022-09-27T02:09:21;22.80;52.60
43561;DHT22;32305;46.410;17.394;2022-09-27T02:11:54;22.70;52.60
43561;DHT22;32305;46.410;17.394;2022-09-27T02:14:44;22.70;52.60
43561;DHT22;32305;46.410;17.394;2022-09-27T02:20:29;22.80;52.70
43561;DHT22;32305;46.410;17.394;2022-09-27T02:23:18;22.80;52.70
43561;DHT22;32305;46.410;17.394;2022-09-27T02:25:56;22.80;52.80
43561;DHT22;32305;46.410;17.394;2022-09-27T02:28:30;22.70;52.70
43561;DHT22;32305;46.410;17.394;2022-09-27T02:30:58;22.80;52.80
43561;DHT22;32305;46.410;17.394;2022-09-27T02:33:37;22.70;52.70
43561;DHT22;32305;46.410;17.394;2022-09-27T02:36:06;22.70;52.70
43561;DHT22;32305;46.410;17.394;2022-09-27T02:38:35;22.70;52.70
43561;DHT22;32305;46.410;17.394;2022-09-27T02:41:02;22.80;52.80
43561;DHT22;32305;46.410;17.394;2022-09-27T02:43:32;22.70;52.70
43561;DHT22;32305;46.410;17.394;2022-09-27T02:46:23;22.80;52.70
43561;DHT22;32305;46.410;17.394;2022-09-27T02:49:18;22.80;52.70
43561;DHT22;32305;46.410;17.394;2022-09-27T02:52:28;22.80;52.60
43561;DHT22;32305;46.410;17.394;2022-09-27T02:55:23;22.80;52.60
43561;DHT22;32305;46.410;17.394;2022-09-27T02:58:16;22.80;52.60
43561;DHT22;32305;46.410;17.394;2022-09-27T03:00:56;22.80;52.60
43561;DHT22;32305;46.410;17.394;2022-09-27T03:04:06;22.80;52.50
43561;DHT22;32305;46.410;17.394;2022-09-27T03:06:35;22.80;52.60
43561;DHT22;32305;46.410;17.394;2022-09-27T03:09:03;22.80;52.60
43561;DHT22;32305;46.410;17.394;2022-09-27T03:11:30;22.80;52.50
43561;DHT22;32305;46.410;17.394;2022-09-27T03:13:59;22.80;52.50
43561;DHT22;32305;46.410;17.394;2022-09-27T03:16:35;22.70;52.50
43561;DHT22;32305;46.410;17.394;2022-09-27T03:19:02;22.80;52.50
43561;DHT22;32305;46.410;17.394;2022-09-27T03:21:29;22.80;52.50
43561;DHT22;32305;46.410;17.394;2022-09-27T03:23:56;22.80;52.50
43561;DHT22;32305;46.410;17.394;2022-09-27T03:26:23;22.80;52.50
43561;DHT22;32305;46.410;17.394;2022-09-27T03:28:50;22.80;52.50
43561;DHT22;32305;46.410;17.394;2022-09-27T03:31:18;22.80;52.50
43561;DHT22;32305;46.410;17.394;2022-09-27T03:33:45;22.70;52.50
43561;DHT22;32305;46.410;17.394;2022-09-27T03:36:12;22.80;52.50
43561;DHT22;32305;46.410;17.394;2022-09-27T03:38:40;22.70;52.40
43561;DHT22;32305;46.410;17.394;2022-09-27T03:41:07;22.80;52.50
43561;DHT22;32305;46.410;17.394;2022-09-27T03:43:34;22.70;52.40
43561;DHT22;32305;46.410;17.394;2022-09-27T03:46:01;22.70;52.50
43561;DHT22;32305;46.410;17.394;2022-09-27T03:48:28;22.70;52.50
43561;DHT22;32305;46.410;17.394;2022-09-27T03:50:57;22.70;52.50
43561;DHT22;32305;46.410;17.394;2022-09-27T03:53:24;22.70;52.50
43561;DHT22;32305;46.410;17.394;2022-09-27T03:55:51;22.70;52.50
43561;DHT22;32305;46.410;17.394;2022-09-27T03:58:18;22.70;52.50
43561;DHT22;32305;46.410;17.394;2022-09-27T04:00:45;22.70;52.50
43561;DHT22;32305;46.410;17.394;2022-09-27T04:03:13;22.70;52.50
43561;DHT22;32305;46.410;17.394;2022-09-27T04:05:40;22.70;52.50
43561;DHT22;32305;46.410;17.394;2022-09-27T04:08:07;22.70;52.50
43561;DHT22;32305;46.410;17.394;2022-09-27T04:10:37;22.70;52.50
43561;DHT22;32305;46.410;17.394;2022-09-27T04:13:04;22.70;52.50
43561;DHT22;32305;46.410;17.394;2022-09-27T04:15:32;22.70;52.50
43561;DHT22;32305;46.410;17.394;2022-09-27T04:17:59;22.70;52.50
43561;DHT22;32305;46.410;17.394;2022-09-27T04:20:26;22.70;52.50
43561;DHT22;32305;46.410;17.394;2022-09-27T04:22:53;22.70;52.50
43561;DHT22;32305;46.410;17.394;2022-09-27T04:25:20;22.70;52.50
43561;DHT22;32305;46.410;17.394;2022-09-27T04:27:47;22.70;52.60
43561;DHT22;32305;46.410;17.394;2022-09-27T04:30:14;22.70;52.60
43561;DHT22;32305;46.410;17.394;2022-09-27T04:32:43;22.70;52.60
43561;DHT22;32305;46.410;17.394;2022-09-27T04:35:11;22.70;52.60
43561;DHT22;32305;46.410;17.394;2022-09-27T04:37:59;22.70;52.60
43561;DHT22;32305;46.410;17.394;2022-09-27T04:40:26;22.70;52.60
43561;DHT22;32305;46.410;17.394;2022-09-27T04:42:53;22.70;52.60
43561;DHT22;32305;46.410;17.394;2022-09-27T04:45:20;22.70;52.60
43561;DHT22;32305;46.410;17.394;2022-09-27T04:47:49;22.70;52.60
43561;DHT22;32305;46.410;17.394;2022-09-27T04:50:17;22.80;52.60
43561;DHT22;32305;46.410;17.394;2022-09-27T04:52:50;22.70;52.60
43561;DHT22;32305;46.410;17.394;2022-09-27T04:55:19;22.80;52.60
43561;DHT22;32305;46.410;17.394;2022-09-27T04:57:47;22.70;52.50
43561;DHT22;32305;46.410;17.394;2022-09-27T05:00:15;22.80;52.50
43561;DHT22;32305;46.410;17.394;2022-09-27T05:02:43;22.80;52.60
43561;DHT22;32305;46.410;17.394;2022-09-27T05:05:11;22.80;52.60
43561;DHT22;32305;46.410;17.394;2022-09-27T05:07:38;22.80;52.60
43561;DHT22;32305;46.410;17.394;2022-09-27T05:10:06;22.80;52.60
43561;DHT22;32305;46.410;17.394;2022-09-27T05:12:34;22.80;52.60
43561;DHT22;32305;46.410;17.394;2022-09-27T05:15:02;22.80;52.50
43561;DHT22;32305;46.410;17.394;2022-09-27T05:17:29;22.80;52.50
43561;DHT22;32305;46.410;17.394;2022-09-27T05:19:56;22.80;52.50
43561;DHT22;32305;46.410;17.394;2022-09-27T05:22:23;22.80;52.50
43561;DHT22;32305;46.410;17.394;2022-09-27T05:24:51;22.80;52.50
43561;DHT22;32305;46.410;17.394;2022-09-27T05:27:18;22.80;52.50
43561;DHT22;32305;46.410;17.394;2022-09-27T05:29:49;22.80;52.60
43561;DHT22;32305;46.410;17.394;2022-09-27T05:32:16;22.80;52.90
43561;DHT22;32305;46.410;17.394;2022-09-27T05:34:44;22.80;53.00
43561;DHT22;32305;46.410;17.394;2022-09-27T05:37:11;22.80;53.00
43561;DHT22;32305;46.410;17.394;2022-09-27T05:39:38;22.90;53.00
43561;DHT22;32305;46.410;17.394;2022-09-27T05:42:06;22.90;52.90
43561;DHT22;32305;46.410;17.394;2022-09-27T05:44:35;22.90;52.90
43561;DHT22;32305;46.410;17.394;2022-09-27T05:47:05;22.90;52.80
43561;DHT22;32305;46.410;17.394;2022-09-27T05:49:33;23.00;52.80
43561;DHT22;32305;46.410;17.394;2022-09-27T05:52:00;22.90;52.80
43561;DHT22;32305;46.410;17.394;2022-09-27T05:54:27;23.00;52.90
43561;DHT22;32305;46.410;17.394;2022-09-27T05:56:56;23.00;52.80
43561;DHT22;32305;46.410;17.394;2022-09-27T05:59:26;23.00;52.90
43561;DHT22;32305;46.410;17.394;2022-09-27T06:01:54;23.10;53.00
43561;DHT22;32305;46.410;17.394;2022-09-27T06:04:21;23.10;53.50
43561;DHT22;32305;46.410;17.394;2022-09-27T06:06:48;23.10;53.70
43561;DHT22;32305;46.410;17.394;2022-09-27T06:09:16;23.10;53.70
43561;DHT22;32305;46.410;17.394;2022-09-27T06:11:44;23.10;53.50
43561;DHT22;32305;46.410;17.394;2022-09-27T06:14:12;23.20;53.40
43561;DHT22;32305;46.410;17.394;2022-09-27T06:16:39;23.20;53.20
43561;DHT22;32305;46.410;17.394;2022-09-27T06:19:06;23.20;53.10
43561;DHT22;32305;46.410;17.394;2022-09-27T06:21:35;23.30;53.10
43561;DHT22;32305;46.410;17.394;2022-09-27T06:24:03;23.30;53.00
43561;DHT22;32305;46.410;17.394;2022-09-27T06:26:30;23.30;52.90
43561;DHT22;32305;46.410;17.394;2022-09-27T06:28:59;23.30;52.90
43561;DHT22;32305;46.410;17.394;2022-09-27T06:31:26;23.40;52.90
43561;DHT22;32305;46.410;17.394;2022-09-27T06:33:53;23.40;52.90
43561;DHT22;32305;46.410;17.394;2022-09-27T06:36:20;23.50;52.80
43561;DHT22;32305;46.410;17.394;2022-09-27T06:38:48;23.50;52.70
43561;DHT22;32305;46.410;17.394;2022-09-27T06:41:15;23.60;52.70
43561;DHT22;32305;46.410;17.394;2022-09-27T06:43:42;23.60;52.50
43561;DHT22;32305;46.410;17.394;2022-09-27T06:46:11;23.60;52.50
43561;DHT22;32305;46.410;17.394;2022-09-27T06:48:38;23.60;52.40
43561;DHT22;32305;46.410;17.394;2022-09-27T06:51:05;23.70;52.40
43561;DHT22;32305;46.410;17.394;2022-09-27T06:53:32;23.70;52.20
43561;DHT22;32305;46.410;17.394;2022-09-27T06:56:00;23.70;52.40
43561;DHT22;32305;46.410;17.394;2022-09-27T06:58:28;23.80;52.90
43561;DHT22;32305;46.410;17.394;2022-09-27T07:01:15;23.90;53.50
43561;DHT22;32305;46.410;17.394;2022-09-27T07:03:47;23.90;53.90
43561;DHT22;32305;46.410;17.394;2022-09-27T07:06:18;23.90;53.70
43561;DHT22;32305;46.410;17.394;2022-09-27T07:08:51;23.90;53.10
43561;DHT22;32305;46.410;17.394;2022-09-27T07:11:21;24.00;52.30
43561;DHT22;32305;46.410;17.394;2022-09-27T07:13:52;24.10;52.30
43561;DHT22;32305;46.410;17.394;2022-09-27T07:16:19;24.00;52.70
43561;DHT22;32305;46.410;17.394;2022-09-27T07:18:47;24.10;52.30
43561;DHT22;32305;46.410;17.394;2022-09-27T07:21:14;24.10;52.30
43561;DHT22;32305;46.410;17.394;2022-09-27T07:23:42;24.10;52.20
43561;DHT22;32305;46.410;17.394;2022-09-27T07:26:09;24.20;52.10
43561;DHT22;32305;46.410;17.394;2022-09-27T07:28:37;24.30;52.30
43561;DHT22;32305;46.410;17.394;2022-09-27T07:31:07;24.30;52.10
43561;DHT22;32305;46.410;17.394;2022-09-27T07:33:35;24.30;52.00
43561;DHT22;32305;46.410;17.394;2022-09-27T07:36:09;24.40;51.80
43561;DHT22;32305;46.410;17.394;2022-09-27T07:38:37;24.50;51.80
43561;DHT22;32305;46.410;17.394;2022-09-27T07:41:09;24.50;51.80
43561;DHT22;32305;46.410;17.394;2022-09-27T07:43:37;24.50;51.60
43561;DHT22;32305;46.410;17.394;2022-09-27T07:46:04;24.50;51.50
43561;DHT22;32305;46.410;17.394;2022-09-27T07:48:31;24.50;51.40
43561;DHT22;32305;46.410;17.394;2022-09-27T07:50:59;24.50;51.70
43561;DHT22;32305;46.410;17.394;2022-09-27T07:53:26;24.50;51.60
43561;DHT22;32305;46.410;17.394;2022-09-27T07:55:53;24.60;51.60
43561;DHT22;32305;46.410;17.394;2022-09-27T07:58:21;24.60;51.30
43561;DHT22;32305;46.410;17.394;2022-09-27T08:00:49;24.60;51.00
43561;DHT22;32305;46.410;17.394;2022-09-27T08:03:17;24.70;50.80
43561;DHT22;32305;46.410;17.394;2022-09-27T08:05:45;24.70;50.90
43561;DHT22;32305;46.410;17.394;2022-09-27T08:08:14;24.80;50.60
43561;DHT22;32305;46.410;17.394;2022-09-27T08:10:42;24.80;50.40
43561;DHT22;32305;46.410;17.394;2022-09-27T08:13:10;24.80;50.30
43561;DHT22;32305;46.410;17.394;2022-09-27T08:15:38;24.80;50.30
43561;DHT22;32305;46.410;17.394;2022-09-27T08:18:06;24.80;50.30
43561;DHT22;32305;46.410;17.394;2022-09-27T08:20:35;24.80;50.30
43561;DHT22;32305;46.410;17.394;2022-09-27T08:23:02;24.80;50.30
43561;DHT22;32305;46.410;17.394;2022-09-27T08:25:30;24.80;50.30
43561;DHT22;32305;46.410;17.394;2022-09-27T08:28:00;24.80;50.30
43561;DHT22;32305;46.410;17.394;2022-09-27T08:30:28;24.70;50.30
43561;DHT22;32305;46.410;17.394;2022-09-27T08:32:58;24.80;50.40
43561;DHT22;32305;46.410;17.394;2022-09-27T08:35:26;24.80;50.40
43561;DHT22;32305;46.410;17.394;2022-09-27T08:37:56;24.90;50.40
43561;DHT22;32305;46.410;17.394;2022-09-27T08:40:37;24.90;50.20
43561;DHT22;32305;46.410;17.394;2022-09-27T08:43:35;24.90;50.20
43561;DHT22;32305;46.410;17.394;2022-09-27T08:46:39;25.00;50.30
43561;DHT22;32305;46.410;17.394;2022-09-27T08:49:18;25.00;50.50
43561;DHT22;32305;46.410;17.394;2022-09-27T08:51:49;25.10;50.30
43561;DHT22;32305;46.410;17.394;2022-09-27T08:54:24;25.10;50.20
43561;DHT22;32305;46.410;17.394;2022-09-27T08:56:53;25.10;50.10
43561;DHT22;32305;46.410;17.394;2022-09-27T08:59:24;25.20;49.90
43561;DHT22;32305;46.410;17.394;2022-09-27T09:01:53;25.30;49.90
43561;DHT22;32305;46.410;17.394;2022-09-27T09:04:36;25.30;49.70
43561;DHT22;32305;46.410;17.394;2022-09-27T09:10:28;25.40;49.60
43561;DHT22;32305;46.410;17.394;2022-09-27T09:14:09;25.40;49.70
43561;DHT22;32305;46.410;17.394;2022-09-27T09:19:54;25.40;49.60
43561;DHT22;32305;46.410;17.394;2022-09-27T09:25:34;25.40;49.70
43561;DHT22;32305;46.410;17.394;2022-09-27T09:31:12;25.40;49.60
43561;DHT22;32305;46.410;17.394;2022-09-27T09:34:12;25.50;49.60
43561;DHT22;32305;46.410;17.394;2022-09-27T09:36:46;25.50;49.80
43561;DHT22;32305;46.410;17.394;2022-09-27T09:39:26;25.50;49.60
43561;DHT22;32305;46.410;17.394;2022-09-27T09:42:19;25.50;49.60
43561;DHT22;32305;46.410;17.394;2022-09-27T09:45:02;25.60;49.60
43561;DHT22;32305;46.410;17.394;2022-09-27T09:47:45;25.50;49.50
43561;DHT22;32305;46.410;17.394;2022-09-27T09:50:25;25.60;49.70
43561;DHT22;32305;46.410;17.394;2022-09-27T09:52:58;25.60;49.70
43561;DHT22;32305;46.410;17.394;2022-09-27T09:55:30;25.60;50.20
43561;DHT22;32305;46.410;17.394;2022-09-27T09:58:12;25.60;49.60
43561;DHT22;32305;46.410;17.394;2022-09-27T10:00:47;25.60;49.60
43561;DHT22;32305;46.410;17.394;2022-09-27T10:03:16;25.60;49.40
43561;DHT22;32305;46.410;17.394;2022-09-27T10:05:43;25.70;49.40
43561;DHT22;32305;46.410;17.394;2022-09-27T10:08:21;25.70;49.30
43561;DHT22;32305;46.410;17.394;2022-09-27T10:10:50;25.70;49.10
43561;DHT22;32305;46.410;17.394;2022-09-27T10:13:20;25.70;49.20
43561;DHT22;32305;46.410;17.394;2022-09-27T10:16:09;25.70;49.20
43561;DHT22;32305;46.410;17.394;2022-09-27T10:18:38;25.70;49.10
43561;DHT22;32305;46.410;17.394;2022-09-27T10:21:24;25.70;49.20
43561;DHT22;32305;46.410;17.394;2022-09-27T10:24:12;25.70;49.30
43561;DHT22;32305;46.410;17.394;2022-09-27T10:26:46;25.60;49.30
43561;DHT22;32305;46.410;17.394;2022-09-27T10:29:35;25.60;49.40
43561;DHT22;32305;46.410;17.394;2022-09-27T10:32:04;25.60;49.40
43561;DHT22;32305;46.410;17.394;2022-09-27T10:34:45;25.60;49.30
43561;DHT22;32305;46.410;17.394;2022-09-27T10:37:16;25.60;49.30
43561;DHT22;32305;46.410;17.394;2022-09-27T10:39:45;25.60;49.30
43561;DHT22;32305;46.410;17.394;2022-09-27T10:42:34;25.60;49.30
43561;DHT22;32305;46.410;17.394;2022-09-27T10:45:26;25.60;49.40
43561;DHT22;32305;46.410;17.394;2022-09-27T10:47:54;25.70;49.70
43561;DHT22;32305;46.410;17.394;2022-09-27T10:50:28;25.60;49.00
43561;DHT22;32305;46.410;17.394;2022-09-27T10:53:18;25.60;48.90
43561;DHT22;32305;46.410;17.394;2022-09-27T10:55:49;25.70;48.90
43561;DHT22;32305;46.410;17.394;2022-09-27T10:58:27;25.70;48.80
43561;DHT22;32305;46.410;17.394;2022-09-27T11:01:05;25.70;49.40
43561;DHT22;32305;46.410;17.394;2022-09-27T11:03:38;25.70;48.90
43561;DHT22;32305;46.410;17.394;2022-09-27T11:06:29;25.70;48.90
43561;DHT22;32305;46.410;17.394;2022-09-27T11:09:14;25.70;48.90
43561;DHT22;32305;46.410;17.394;2022-09-27T11:11:42;25.70;48.90
43561;DHT22;32305;46.410;17.394;2022-09-27T11:14:20;25.70;48.90
43561;DHT22;32305;46.410;17.394;2022-09-27T11:17:06;25.70;48.90
43561;DHT22;32305;46.410;17.394;2022-09-27T11:20:02;25.80;48.80
43561;DHT22;32305;46.410;17.394;2022-09-27T11:22:57;25.80;48.70
43561;DHT22;32305;46.410;17.394;2022-09-27T11:25:38;25.80;48.80
43561;DHT22;32305;46.410;17.394;2022-09-27T11:31:42;25.90;48.70
43561;DHT22;32305;46.410;17.394;2022-09-27T11:34:43;25.90;48.90
43561;DHT22;32305;46.410;17.394;2022-09-27T11:37:40;25.90;48.90
43561;DHT22;32305;46.410;17.394;2022-09-27T11:40:36;26.00;49.10
43561;DHT22;32305;46.410;17.394;2022-09-27T11:46:30;26.10;49.00
43561;DHT22;32305;46.410;17.394;2022-09-27T11:49:30;26.10;48.80
43561;DHT22;32305;46.410;17.394;2022-09-27T11:52:39;26.10;48.90
43561;DHT22;32305;46.410;17.394;2022-09-27T11:55:25;26.10;48.80
43561;DHT22;32305;46.410;17.394;2022-09-27T12:01:20;26.10;49.00
43561;DHT22;32305;46.410;17.394;2022-09-27T12:04:11;26.20;48.70
43561;DHT22;32305;46.410;17.394;2022-09-27T12:07:03;26.20;49.00
43561;DHT22;32305;46.410;17.394;2022-09-27T12:09:42;26.20;48.70
43561;DHT22;32305;46.410;17.394;2022-09-27T12:12:19;26.20;48.70
43561;DHT22;32305;46.410;17.394;2022-09-27T12:15:16;26.20;48.70
43561;DHT22;32305;46.410;17.394;2022-09-27T12:17:48;26.20;48.80
43561;DHT22;32305;46.410;17.394;2022-09-27T12:20:22;26.20;48.70
43561;DHT22;32305;46.410;17.394;2022-09-27T12:23:07;26.20;48.70
43561;DHT22;32305;46.410;17.394;2022-09-27T12:25:40;26.20;48.70
43561;DHT22;32305;46.410;17.394;2022-09-27T12:28:37;26.20;48.80
43561;DHT22;32305;46.410;17.394;2022-09-27T12:31:17;26.20;48.80
43561;DHT22;32305;46.410;17.394;2022-09-27T12:34:17;26.20;48.80
43561;DHT22;32305;46.410;17.394;2022-09-27T12:37:12;26.20;48.70
43561;DHT22;32305;46.410;17.394;2022-09-27T12:39:52;26.20;48.70
43561;DHT22;32305;46.410;17.394;2022-09-27T12:42:31;26.20;48.60
43561;DHT22;32305;46.410;17.394;2022-09-27T12:44:59;26.20;48.80
43561;DHT22;32305;46.410;17.394;2022-09-27T12:47:51;26.20;49.00
43561;DHT22;32305;46.410;17.394;2022-09-27T12:50:42;26.20;48.70
43561;DHT22;32305;46.410;17.394;2022-09-27T12:53:20;26.20;49.40
43561;DHT22;32305;46.410;17.394;2022-09-27T13:02:26;26.30;49.20
43561;DHT22;32305;46.410;17.394;2022-09-27T13:05:23;26.30;49.60
43561;DHT22;32305;46.410;17.394;2022-09-27T13:11:28;26.30;49.50
43561;DHT22;32305;46.410;17.394;2022-09-27T13:14:03;26.30;49.50
43561;DHT22;32305;46.410;17.394;2022-09-27T13:16:41;26.30;49.40
43561;DHT22;32305;46.410;17.394;2022-09-27T13:19:42;26.30;49.50
43561;DHT22;32305;46.410;17.394;2022-09-27T13:22:36;26.30;49.50
43561;DHT22;32305;46.410;17.394;2022-09-27T13:28:37;26.30;49.70
43561;DHT22;32305;46.410;17.394;2022-09-27T13:34:40;26.20;49.60
43561;DHT22;32305;46.410;17.394;2022-09-27T13:37:43;26.30;49.50
43561;DHT22;32305;46.410;17.394;2022-09-27T13:40:25;26.30;49.60
43561;DHT22;32305;46.410;17.394;2022-09-27T13:43:20;26.30;49.70
43561;DHT22;32305;46.410;17.394;2022-09-27T13:45:56;26.30;49.80
43561;DHT22;32305;46.410;17.394;2022-09-27T13:48:38;26.20;49.70
43561;DHT22;32305;46.410;17.394;2022-09-27T13:51:33;26.20;49.60
43561;DHT22;32305;46.410;17.394;2022-09-27T13:54:08;26.20;49.80
43561;DHT22;32305;46.410;17.394;2022-09-27T13:56:53;26.20;49.80
43561;DHT22;32305;46.410;17.394;2022-09-27T13:59:32;26.20;49.70
43561;DHT22;32305;46.410;17.394;2022-09-27T14:02:31;26.20;49.60
43561;DHT22;32305;46.410;17.394;2022-09-27T14:05:02;26.30;49.90
43561;DHT22;32305;46.410;17.394;2022-09-27T14:07:38;26.20;49.60
43561;DHT22;32305;46.410;17.394;2022-09-27T14:10:12;26.20;49.60
43561;DHT22;32305;46.410;17.394;2022-09-27T14:12:40;26.20;49.70
43561;DHT22;32305;46.410;17.394;2022-09-27T14:15:17;26.10;49.80
43561;DHT22;32305;46.410;17.394;2022-09-27T14:17:45;26.10;49.70
43561;DHT22;32305;46.410;17.394;2022-09-27T14:20:39;26.10;49.80
43561;DHT22;32305;46.410;17.394;2022-09-27T14:23:20;26.00;49.80
43561;DHT22;32305;46.410;17.394;2022-09-27T14:25:50;26.00;49.80
43561;DHT22;32305;46.410;17.394;2022-09-27T14:28:27;25.90;49.80
43561;DHT22;32305;46.410;17.394;2022-09-27T14:31:13;26.00;49.80
43561;DHT22;32305;46.410;17.394;2022-09-27T14:33:40;25.90;49.90
43561;DHT22;32305;46.410;17.394;2022-09-27T14:36:24;25.90;50.20
43561;DHT22;32305;46.410;17.394;2022-09-27T14:39:15;25.90;49.90
43561;DHT22;32305;46.410;17.394;2022-09-27T14:41:46;25.90;49.80
43561;DHT22;32305;46.410;17.394;2022-09-27T14:44:19;25.90;49.60
43561;DHT22;32305;46.410;17.394;2022-09-27T14:47:16;25.80;49.50
43561;DHT22;32305;46.410;17.394;2022-09-27T14:49:51;25.80;49.50
43561;DHT22;32305;46.410;17.394;2022-09-27T14:52:26;25.80;49.80
43561;DHT22;32305;46.410;17.394;2022-09-27T14:55:04;25.70;49.70
43561;DHT22;32305;46.410;17.394;2022-09-27T14:57:32;25.70;49.80
43561;DHT22;32305;46.410;17.394;2022-09-27T15:00:14;25.60;49.90
43561;DHT22;32305;46.410;17.394;2022-09-27T15:02:43;25.50;50.00
43561;DHT22;32305;46.410;17.394;2022-09-27T15:05:14;25.50;50.10
43561;DHT22;32305;46.410;17.394;2022-09-27T15:07:44;25.40;50.20
43561;DHT22;32305;46.410;17.394;2022-09-27T15:10:14;25.40;50.40
43561;DHT22;32305;46.410;17.394;2022-09-27T15:12:44;25.40;50.50
43561;DHT22;32305;46.410;17.394;2022-09-27T15:15:25;25.40;50.70
43561;DHT22;32305;46.410;17.394;2022-09-27T15:17:53;25.40;50.80
43561;DHT22;32305;46.410;17.394;2022-09-27T15:20:25;25.30;51.00
43561;DHT22;32305;46.410;17.394;2022-09-27T15:23:02;25.30;51.20
43561;DHT22;32305;46.410;17.394;2022-09-27T15:25:40;25.30;51.40
43561;DHT22;32305;46.410;17.394;2022-09-27T15:28:17;25.20;51.40
43561;DHT22;32305;46.410;17.394;2022-09-27T15:30:54;25.20;51.60
43561;DHT22;32305;46.410;17.394;2022-09-27T15:33:27;25.10;51.50
43561;DHT22;32305;46.410;17.394;2022-09-27T15:35:58;25.10;51.60
43561;DHT22;32305;46.410;17.394;2022-09-27T15:38:34;25.10;52.20
43561;DHT22;32305;46.410;17.394;2022-09-27T15:41:13;25.10;52.30
43561;DHT22;32305;46.410;17.394;2022-09-27T15:43:49;25.00;52.40
43561;DHT22;32305;46.410;17.394;2022-09-27T15:46:31;25.00;52.50
43561;DHT22;32305;46.410;17.394;2022-09-27T15:49:21;25.00;52.50
43561;DHT22;32305;46.410;17.394;2022-09-27T15:51:54;25.00;52.70
43561;DHT22;32305;46.410;17.394;2022-09-27T15:54:23;24.90;52.70
43561;DHT22;32305;46.410;17.394;2022-09-27T15:56:53;24.90;52.80
43561;DHT22;32305;46.410;17.394;2022-09-27T15:59:26;24.80;52.70
43561;DHT22;32305;46.410;17.394;2022-09-27T16:02:13;24.80;52.90
43561;DHT22;32305;46.410;17.394;2022-09-27T16:04:42;24.80;53.50
43561;DHT22;32305;46.410;17.394;2022-09-27T16:07:09;24.70;54.00
43561;DHT22;32305;46.410;17.394;2022-09-27T16:09:36;24.70;54.50
43561;DHT22;32305;46.410;17.394;2022-09-27T16:12:04;24.70;54.90
43561;DHT22;32305;46.410;17.394;2022-09-27T16:14:31;24.70;55.00
43561;DHT22;32305;46.410;17.394;2022-09-27T16:16:58;24.60;54.80
43561;DHT22;32305;46.410;17.394;2022-09-27T16:19:25;24.60;54.60
43561;DHT22;32305;46.410;17.394;2022-09-27T16:21:52;24.60;54.60
43561;DHT22;32305;46.410;17.394;2022-09-27T16:24:20;24.50;54.40
43561;DHT22;32305;46.410;17.394;2022-09-27T16:26:47;24.50;54.30
43561;DHT22;32305;46.410;17.394;2022-09-27T16:29:14;24.50;54.20
43561;DHT22;32305;46.410;17.394;2022-09-27T16:31:42;24.50;54.20
43561;DHT22;32305;46.410;17.394;2022-09-27T16:34:10;24.40;54.10
43561;DHT22;32305;46.410;17.394;2022-09-27T16:36:39;24.40;54.10
43561;DHT22;32305;46.410;17.394;2022-09-27T16:39:08;24.30;54.00
43561;DHT22;32305;46.410;17.394;2022-09-27T16:41:37;24.30;54.10
43561;DHT22;32305;46.410;17.394;2022-09-27T16:44:12;24.30;54.20
43561;DHT22;32305;46.410;17.394;2022-09-27T16:46:40;24.30;54.30
43561;DHT22;32305;46.410;17.394;2022-09-27T16:49:08;24.30;54.40
43561;DHT22;32305;46.410;17.394;2022-09-27T16:51:56;24.20;54.40
43561;DHT22;32305;46.410;17.394;2022-09-27T16:54:29;24.20;55.10
43561;DHT22;32305;46.410;17.394;2022-09-27T16:56:58;24.20;54.60
43561;DHT22;32305;46.410;17.394;2022-09-27T16:59:26;24.20;54.60
43561;DHT22;32305;46.410;17.394;2022-09-27T17:01:53;24.20;54.70